sensor_id;sensor_type;location;lat;lon;timestamp;P1;durP1;ratioP1;P2;durP2;ratioP2
54430;SDS011;40342;52.998;5.862;2022-09-23T00:02:14;8.43;;;6.60;;
54430;SDS011;40342;52.998;5.862;2022-09-23T00:04:40;8.32;;;7.53;;
54430;SDS011;40342;52.998;5.862;2022-09-23T00:07:07;7.45;;;6.75;;
54430;SDS011;40342;52.998;5.862;2022-09-23T00:09:33;8.32;;;7.40;;
54430;SDS011;40342;52.998;5.862;2022-09-23T00:11:58;7.78;;;7.07;;
54430;SDS011;40342;52.998;5.862;2022-09-23T00:14:24;8.38;;;7.60;;
54430;SDS011;40342;52.998;5.862;2022-09-23T00:16:50;8.25;;;7.45;;
54430;SDS011;40342;52.998;5.862;2022-09-23T00:19:16;9.82;;;7.65;;
54430;SDS011;40342;52.998;5.862;2022-09-23T00:21:42;10.23;;;7.57;;
54430;SDS011;40342;52.998;5.862;2022-09-23T00:24:07;11.23;;;8.30;;
54430;SDS011;40342;52.998;5.862;2022-09-23T00:26:33;8.93;;;7.78;;
54430;SDS011;40342;52.998;5.862;2022-09-23T00:28:58;8.98;;;7.70;;
54430;SDS011;40342;52.998;5.862;2022-09-23T00:31:25;10.05;;;8.43;;
54430;SDS011;40342;52.998;5.862;2022-09-23T00:33:54;9.48;;;8.57;;
54430;SDS011;40342;52.998;5.862;2022-09-23T00:36:22;9.32;;;8.10;;
54430;SDS011;40342;52.998;5.862;2022-09-23T00:38:48;10.50;;;8.02;;
54430;SDS011;40342;52.998;5.862;2022-09-23T00:41:14;11.75;;;8.00;;
54430;SDS011;40342;52.998;5.862;2022-09-23T00:43:53;9.25;;;8.00;;
54430;SDS011;40342;52.998;5.862;2022-09-23T00:46:34;8.70;;;7.90;;
54430;SDS011;40342;52.998;5.862;2022-09-23T00:49:11;9.25;;;8.15;;
54430;SDS011;40342;52.998;5.862;2022-09-23T00:51:44;9.90;;;8.48;;
54430;SDS011;40342;52.998;5.862;2022-09-23T00:54:15;10.70;;;7.83;;
54430;SDS011;40342;52.998;5.862;2022-09-23T00:56:41;11.45;;;8.70;;
54430;SDS011;40342;52.998;5.862;2022-09-23T00:59:08;9.77;;;8.88;;
54430;SDS011;40342;52.998;5.862;2022-09-23T01:01:34;13.38;;;8.43;;
54430;SDS011;40342;52.998;5.862;2022-09-23T01:04:01;9.85;;;8.85;;
54430;SDS011;40342;52.998;5.862;2022-09-23T01:06:28;10.60;;;8.80;;
54430;SDS011;40342;52.998;5.862;2022-09-23T01:08:54;14.45;;;8.98;;
54430;SDS011;40342;52.998;5.862;2022-09-23T01:11:22;11.93;;;9.65;;
54430;SDS011;40342;52.998;5.862;2022-09-23T01:16:32;12.00;;;9.60;;
54430;SDS011;40342;52.998;5.862;2022-09-23T01:22:10;10.27;;;9.18;;
54430;SDS011;40342;52.998;5.862;2022-09-23T01:24:44;10.43;;;9.20;;
54430;SDS011;40342;52.998;5.862;2022-09-23T01:43:23;10.68;;;9.57;;
54430;SDS011;40342;52.998;5.862;2022-09-23T01:46:25;10.98;;;9.82;;
54430;SDS011;40342;52.998;5.862;2022-09-23T01:51:45;11.55;;;9.25;;
54430;SDS011;40342;52.998;5.862;2022-09-23T01:54:23;11.10;;;9.98;;
54430;SDS011;40342;52.998;5.862;2022-09-23T01:56:53;11.45;;;10.20;;
54430;SDS011;40342;52.998;5.862;2022-09-23T01:59:30;11.13;;;10.00;;
54430;SDS011;40342;52.998;5.862;2022-09-23T02:02:13;12.02;;;10.77;;
54430;SDS011;40342;52.998;5.862;2022-09-23T02:08:15;12.18;;;10.88;;
54430;SDS011;40342;52.998;5.862;2022-09-23T02:12:58;13.15;;;11.75;;
54430;SDS011;40342;52.998;5.862;2022-09-23T02:15:31;11.98;;;10.88;;
54430;SDS011;40342;52.998;5.862;2022-09-23T02:18:02;12.90;;;11.35;;
54430;SDS011;40342;52.998;5.862;2022-09-23T02:20:34;12.85;;;11.50;;
54430;SDS011;40342;52.998;5.862;2022-09-23T02:23:08;12.63;;;11.35;;
54430;SDS011;40342;52.998;5.862;2022-09-23T02:28:25;12.25;;;11.15;;
54430;SDS011;40342;52.998;5.862;2022-09-23T02:31:05;14.50;;;12.30;;
54430;SDS011;40342;52.998;5.862;2022-09-23T02:33:38;14.77;;;11.52;;
54430;SDS011;40342;52.998;5.862;2022-09-23T02:36:20;12.75;;;11.40;;
54430;SDS011;40342;52.998;5.862;2022-09-23T02:38:58;12.70;;;11.50;;
54430;SDS011;40342;52.998;5.862;2022-09-23T02:42:13;12.85;;;11.20;;
54430;SDS011;40342;52.998;5.862;2022-09-23T02:44:23;12.48;;;11.20;;
54430;SDS011;40342;52.998;5.862;2022-09-23T02:46:49;13.40;;;11.63;;
54430;SDS011;40342;52.998;5.862;2022-09-23T02:49:27;15.88;;;11.38;;
54430;SDS011;40342;52.998;5.862;2022-09-23T02:51:54;14.40;;;11.60;;
54430;SDS011;40342;52.998;5.862;2022-09-23T02:54:22;14.82;;;11.05;;
54430;SDS011;40342;52.998;5.862;2022-09-23T02:56:50;13.13;;;11.88;;
54430;SDS011;40342;52.998;5.862;2022-09-23T02:59:17;13.82;;;11.70;;
54430;SDS011;40342;52.998;5.862;2022-09-23T03:04:34;11.82;;;10.63;;
54430;SDS011;40342;52.998;5.862;2022-09-23T03:10:35;12.35;;;11.13;;
54430;SDS011;40342;52.998;5.862;2022-09-23T03:15:52;12.60;;;11.30;;
54430;SDS011;40342;52.998;5.862;2022-09-23T03:18:38;13.10;;;11.15;;
54430;SDS011;40342;52.998;5.862;2022-09-23T03:21:26;12.77;;;11.48;;
54430;SDS011;40342;52.998;5.862;2022-09-23T03:23:58;13.68;;;12.25;;
54430;SDS011;40342;52.998;5.862;2022-09-23T03:26:29;14.30;;;11.73;;
54430;SDS011;40342;52.998;5.862;2022-09-23T03:28:58;12.75;;;11.40;;
54430;SDS011;40342;52.998;5.862;2022-09-23T03:31:27;15.98;;;12.95;;
54430;SDS011;40342;52.998;5.862;2022-09-23T03:33:54;14.10;;;12.70;;
54430;SDS011;40342;52.998;5.862;2022-09-23T03:36:26;14.52;;;13.00;;
54430;SDS011;40342;52.998;5.862;2022-09-23T03:42:05;14.20;;;12.73;;
54430;SDS011;40342;52.998;5.862;2022-09-23T03:44:36;14.38;;;12.88;;
54430;SDS011;40342;52.998;5.862;2022-09-23T03:47:03;16.35;;;13.38;;
54430;SDS011;40342;52.998;5.862;2022-09-23T03:49:32;13.88;;;12.45;;
54430;SDS011;40342;52.998;5.862;2022-09-23T03:52:01;13.93;;;12.52;;
54430;SDS011;40342;52.998;5.862;2022-09-23T03:54:27;14.32;;;12.82;;
54430;SDS011;40342;52.998;5.862;2022-09-23T03:56:54;14.80;;;13.38;;
54430;SDS011;40342;52.998;5.862;2022-09-23T03:59:24;17.08;;;12.93;;
54430;SDS011;40342;52.998;5.862;2022-09-23T04:01:50;15.05;;;13.52;;
54430;SDS011;40342;52.998;5.862;2022-09-23T04:04:16;14.75;;;13.35;;
54430;SDS011;40342;52.998;5.862;2022-09-23T04:06:42;15.45;;;13.95;;
54430;SDS011;40342;52.998;5.862;2022-09-23T04:09:08;13.90;;;11.77;;
54430;SDS011;40342;52.998;5.862;2022-09-23T04:11:33;16.30;;;12.95;;
54430;SDS011;40342;52.998;5.862;2022-09-23T04:13:59;14.80;;;13.40;;
54430;SDS011;40342;52.998;5.862;2022-09-23T04:16:26;16.35;;;12.88;;
54430;SDS011;40342;52.998;5.862;2022-09-23T04:18:52;16.00;;;13.63;;
54430;SDS011;40342;52.998;5.862;2022-09-23T04:21:17;15.82;;;13.88;;
54430;SDS011;40342;52.998;5.862;2022-09-23T04:23:43;15.57;;;13.93;;
54430;SDS011;40342;52.998;5.862;2022-09-23T04:26:10;18.00;;;14.15;;
54430;SDS011;40342;52.998;5.862;2022-09-23T04:28:37;15.48;;;13.50;;
54430;SDS011;40342;52.998;5.862;2022-09-23T04:31:03;15.45;;;13.65;;
54430;SDS011;40342;52.998;5.862;2022-09-23T04:33:30;14.13;;;12.65;;
54430;SDS011;40342;52.998;5.862;2022-09-23T04:35:55;14.63;;;13.13;;
54430;SDS011;40342;52.998;5.862;2022-09-23T04:38:21;17.60;;;13.80;;
54430;SDS011;40342;52.998;5.862;2022-09-23T04:40:47;13.80;;;12.43;;
54430;SDS011;40342;52.998;5.862;2022-09-23T04:43:13;15.15;;;13.75;;
54430;SDS011;40342;52.998;5.862;2022-09-23T04:45:40;14.85;;;12.52;;
54430;SDS011;40342;52.998;5.862;2022-09-23T04:48:06;15.13;;;12.82;;
54430;SDS011;40342;52.998;5.862;2022-09-23T04:50:34;13.95;;;12.20;;
54430;SDS011;40342;52.998;5.862;2022-09-23T04:53:01;13.45;;;12.07;;
54430;SDS011;40342;52.998;5.862;2022-09-23T04:55:26;19.35;;;12.82;;
54430;SDS011;40342;52.998;5.862;2022-09-23T04:57:52;15.57;;;12.93;;
54430;SDS011;40342;52.998;5.862;2022-09-23T05:00:18;14.55;;;12.25;;
54430;SDS011;40342;52.998;5.862;2022-09-23T05:02:44;14.93;;;13.35;;
54430;SDS011;40342;52.998;5.862;2022-09-23T05:05:11;17.90;;;13.10;;
54430;SDS011;40342;52.998;5.862;2022-09-23T05:07:37;15.38;;;12.63;;
54430;SDS011;40342;52.998;5.862;2022-09-23T05:10:03;16.30;;;13.38;;
54430;SDS011;40342;52.998;5.862;2022-09-23T05:12:30;18.50;;;12.45;;
54430;SDS011;40342;52.998;5.862;2022-09-23T05:14:55;14.30;;;12.85;;
54430;SDS011;40342;52.998;5.862;2022-09-23T05:17:21;16.02;;;13.15;;
54430;SDS011;40342;52.998;5.862;2022-09-23T05:19:47;15.77;;;13.32;;
54430;SDS011;40342;52.998;5.862;2022-09-23T05:22:13;15.68;;;12.95;;
54430;SDS011;40342;52.998;5.862;2022-09-23T05:24:38;16.50;;;13.35;;
54430;SDS011;40342;52.998;5.862;2022-09-23T05:27:04;17.20;;;13.00;;
54430;SDS011;40342;52.998;5.862;2022-09-23T05:29:32;15.20;;;13.57;;
54430;SDS011;40342;52.998;5.862;2022-09-23T05:31:58;14.75;;;12.98;;
54430;SDS011;40342;52.998;5.862;2022-09-23T05:34:25;15.02;;;13.52;;
54430;SDS011;40342;52.998;5.862;2022-09-23T05:36:51;15.45;;;13.57;;
54430;SDS011;40342;52.998;5.862;2022-09-23T05:39:17;15.35;;;13.23;;
54430;SDS011;40342;52.998;5.862;2022-09-23T05:41:42;18.45;;;14.00;;
54430;SDS011;40342;52.998;5.862;2022-09-23T05:44:10;14.57;;;13.18;;
54430;SDS011;40342;52.998;5.862;2022-09-23T05:46:36;15.43;;;13.60;;
54430;SDS011;40342;52.998;5.862;2022-09-23T05:49:02;18.55;;;13.90;;
54430;SDS011;40342;52.998;5.862;2022-09-23T05:51:30;15.55;;;13.98;;
54430;SDS011;40342;52.998;5.862;2022-09-23T05:53:57;15.38;;;13.25;;
54430;SDS011;40342;52.998;5.862;2022-09-23T05:56:23;14.57;;;13.00;;
54430;SDS011;40342;52.998;5.862;2022-09-23T05:58:52;16.40;;;12.88;;
54430;SDS011;40342;52.998;5.862;2022-09-23T06:01:19;14.73;;;13.20;;
54430;SDS011;40342;52.998;5.862;2022-09-23T06:03:49;14.90;;;13.27;;
54430;SDS011;40342;52.998;5.862;2022-09-23T06:06:15;16.92;;;12.65;;
54430;SDS011;40342;52.998;5.862;2022-09-23T06:08:43;15.90;;;13.50;;
54430;SDS011;40342;52.998;5.862;2022-09-23T06:11:09;14.80;;;13.35;;
54430;SDS011;40342;52.998;5.862;2022-09-23T06:13:36;14.48;;;12.70;;
54430;SDS011;40342;52.998;5.862;2022-09-23T06:16:10;15.10;;;13.70;;
54430;SDS011;40342;52.998;5.862;2022-09-23T06:18:42;17.23;;;13.00;;
54430;SDS011;40342;52.998;5.862;2022-09-23T06:21:11;13.43;;;12.02;;
54430;SDS011;40342;52.998;5.862;2022-09-23T06:23:38;14.38;;;12.93;;
54430;SDS011;40342;52.998;5.862;2022-09-23T06:26:05;13.90;;;12.50;;
54430;SDS011;40342;52.998;5.862;2022-09-23T06:28:33;14.70;;;12.90;;
54430;SDS011;40342;52.998;5.862;2022-09-23T06:31:01;12.57;;;11.35;;
54430;SDS011;40342;52.998;5.862;2022-09-23T06:33:29;15.98;;;11.30;;
54430;SDS011;40342;52.998;5.862;2022-09-23T06:35:58;13.10;;;11.85;;
54430;SDS011;40342;52.998;5.862;2022-09-23T06:38:26;15.05;;;11.20;;
54430;SDS011;40342;52.998;5.862;2022-09-23T06:40:53;15.43;;;12.10;;
54430;SDS011;40342;52.998;5.862;2022-09-23T06:43:20;11.80;;;10.65;;
54430;SDS011;40342;52.998;5.862;2022-09-23T06:45:51;16.40;;;11.82;;
54430;SDS011;40342;52.998;5.862;2022-09-23T06:48:17;19.10;;;12.57;;
54430;SDS011;40342;52.998;5.862;2022-09-23T06:50:44;13.63;;;11.98;;
54430;SDS011;40342;52.998;5.862;2022-09-23T06:53:09;14.65;;;12.77;;
54430;SDS011;40342;52.998;5.862;2022-09-23T06:55:36;20.17;;;12.65;;
54430;SDS011;40342;52.998;5.862;2022-09-23T06:58:02;13.88;;;12.00;;
54430;SDS011;40342;52.998;5.862;2022-09-23T07:00:28;12.70;;;11.52;;
54430;SDS011;40342;52.998;5.862;2022-09-23T07:02:53;13.57;;;12.18;;
54430;SDS011;40342;52.998;5.862;2022-09-23T07:05:19;15.57;;;11.88;;
54430;SDS011;40342;52.998;5.862;2022-09-23T07:07:46;20.05;;;12.27;;
54430;SDS011;40342;52.998;5.862;2022-09-23T07:10:12;13.75;;;12.05;;
54430;SDS011;40342;52.998;5.862;2022-09-23T07:12:38;12.95;;;11.55;;
54430;SDS011;40342;52.998;5.862;2022-09-23T07:15:04;13.85;;;12.10;;
54430;SDS011;40342;52.998;5.862;2022-09-23T07:17:30;15.57;;;12.50;;
54430;SDS011;40342;52.998;5.862;2022-09-23T07:19:55;12.82;;;11.48;;
54430;SDS011;40342;52.998;5.862;2022-09-23T07:22:22;12.75;;;11.43;;
54430;SDS011;40342;52.998;5.862;2022-09-23T07:24:49;12.23;;;11.13;;
54430;SDS011;40342;52.998;5.862;2022-09-23T07:27:15;13.07;;;11.68;;
54430;SDS011;40342;52.998;5.862;2022-09-23T07:29:43;12.82;;;10.23;;
54430;SDS011;40342;52.998;5.862;2022-09-23T07:32:13;11.88;;;10.80;;
54430;SDS011;40342;52.998;5.862;2022-09-23T07:34:39;12.20;;;10.68;;
54430;SDS011;40342;52.998;5.862;2022-09-23T07:37:04;12.88;;;11.52;;
54430;SDS011;40342;52.998;5.862;2022-09-23T07:39:30;11.50;;;10.52;;
54430;SDS011;40342;52.998;5.862;2022-09-23T07:41:56;11.05;;;10.13;;
54430;SDS011;40342;52.998;5.862;2022-09-23T07:44:24;12.63;;;11.43;;
54430;SDS011;40342;52.998;5.862;2022-09-23T07:46:49;11.80;;;10.70;;
54430;SDS011;40342;52.998;5.862;2022-09-23T07:49:15;13.10;;;11.75;;
54430;SDS011;40342;52.998;5.862;2022-09-23T07:51:41;12.80;;;10.35;;
54430;SDS011;40342;52.998;5.862;2022-09-23T07:54:10;11.85;;;10.68;;
54430;SDS011;40342;52.998;5.862;2022-09-23T07:56:37;12.57;;;11.48;;
54430;SDS011;40342;52.998;5.862;2022-09-23T07:59:04;11.82;;;10.73;;
54430;SDS011;40342;52.998;5.862;2022-09-23T08:01:36;12.55;;;11.25;;
54430;SDS011;40342;52.998;5.862;2022-09-23T08:04:14;12.18;;;10.98;;
54430;SDS011;40342;52.998;5.862;2022-09-23T08:06:45;11.68;;;10.55;;
54430;SDS011;40342;52.998;5.862;2022-09-23T08:09:16;13.23;;;11.68;;
54430;SDS011;40342;52.998;5.862;2022-09-23T08:11:45;11.57;;;10.40;;
54430;SDS011;40342;52.998;5.862;2022-09-23T08:14:12;11.75;;;10.55;;
54430;SDS011;40342;52.998;5.862;2022-09-23T08:16:39;11.75;;;10.63;;
54430;SDS011;40342;52.998;5.862;2022-09-23T08:19:05;13.10;;;10.35;;
54430;SDS011;40342;52.998;5.862;2022-09-23T08:21:32;11.45;;;10.23;;
54430;SDS011;40342;52.998;5.862;2022-09-23T08:23:57;12.88;;;11.68;;
54430;SDS011;40342;52.998;5.862;2022-09-23T08:26:23;12.38;;;10.88;;
54430;SDS011;40342;52.998;5.862;2022-09-23T08:28:49;11.98;;;10.63;;
54430;SDS011;40342;52.998;5.862;2022-09-23T08:31:17;12.60;;;11.27;;
54430;SDS011;40342;52.998;5.862;2022-09-23T08:33:43;12.25;;;11.20;;
54430;SDS011;40342;52.998;5.862;2022-09-23T08:36:09;12.60;;;11.50;;
54430;SDS011;40342;52.998;5.862;2022-09-23T08:38:34;12.18;;;10.98;;
54430;SDS011;40342;52.998;5.862;2022-09-23T08:44:16;12.70;;;11.40;;
54430;SDS011;40342;52.998;5.862;2022-09-23T08:49:30;12.60;;;11.40;;
54430;SDS011;40342;52.998;5.862;2022-09-23T08:52:02;13.60;;;10.10;;
54430;SDS011;40342;52.998;5.862;2022-09-23T08:54:33;12.82;;;11.40;;
54430;SDS011;40342;52.998;5.862;2022-09-23T08:56:59;12.70;;;11.27;;
54430;SDS011;40342;52.998;5.862;2022-09-23T09:02:10;13.95;;;11.35;;
54430;SDS011;40342;52.998;5.862;2022-09-23T09:04:42;18.92;;;12.27;;
54430;SDS011;40342;52.998;5.862;2022-09-23T09:07:13;17.25;;;12.00;;
54430;SDS011;40342;52.998;5.862;2022-09-23T09:12:38;12.48;;;11.27;;
54430;SDS011;40342;52.998;5.862;2022-09-23T09:15:23;19.45;;;11.75;;
54430;SDS011;40342;52.998;5.862;2022-09-23T09:20:38;13.45;;;12.05;;
54430;SDS011;40342;52.998;5.862;2022-09-23T09:23:20;12.05;;;10.85;;
54430;SDS011;40342;52.998;5.862;2022-09-23T09:25:48;12.15;;;10.70;;
54430;SDS011;40342;52.998;5.862;2022-09-23T09:28:17;13.55;;;10.77;;
54430;SDS011;40342;52.998;5.862;2022-09-23T09:30:53;14.35;;;11.02;;
54430;SDS011;40342;52.998;5.862;2022-09-23T09:33:51;18.27;;;10.90;;
54430;SDS011;40342;52.998;5.862;2022-09-23T09:36:25;14.80;;;10.95;;
54430;SDS011;40342;52.998;5.862;2022-09-23T09:39:12;11.40;;;10.35;;
54430;SDS011;40342;52.998;5.862;2022-09-23T09:41:49;14.65;;;10.85;;
54430;SDS011;40342;52.998;5.862;2022-09-23T09:44:20;12.55;;;11.10;;
54430;SDS011;40342;52.998;5.862;2022-09-23T09:46:50;12.32;;;10.35;;
54430;SDS011;40342;52.998;5.862;2022-09-23T09:49:41;11.98;;;10.75;;
54430;SDS011;40342;52.998;5.862;2022-09-23T09:52:20;13.05;;;10.60;;
54430;SDS011;40342;52.998;5.862;2022-09-23T09:54:51;13.10;;;9.77;;
54430;SDS011;40342;52.998;5.862;2022-09-23T10:02:46;12.32;;;10.20;;
54430;SDS011;40342;52.998;5.862;2022-09-23T10:08:24;11.25;;;9.98;;
54430;SDS011;40342;52.998;5.862;2022-09-23T10:11:00;15.43;;;11.02;;
54430;SDS011;40342;52.998;5.862;2022-09-23T10:13:26;13.98;;;10.50;;
54430;SDS011;40342;52.998;5.862;2022-09-23T10:15:53;16.00;;;11.13;;
54430;SDS011;40342;52.998;5.862;2022-09-23T10:18:27;17.42;;;10.40;;
54430;SDS011;40342;52.998;5.862;2022-09-23T10:21:08;12.45;;;10.45;;
54430;SDS011;40342;52.998;5.862;2022-09-23T10:23:49;18.13;;;10.98;;
54430;SDS011;40342;52.998;5.862;2022-09-23T10:26:17;13.55;;;10.85;;
54430;SDS011;40342;52.998;5.862;2022-09-23T10:28:53;12.05;;;10.65;;
54430;SDS011;40342;52.998;5.862;2022-09-23T10:31:32;15.43;;;11.43;;
54430;SDS011;40342;52.998;5.862;2022-09-23T10:34:00;11.55;;;10.32;;
54430;SDS011;40342;52.998;5.862;2022-09-23T10:36:31;13.38;;;11.05;;
54430;SDS011;40342;52.998;5.862;2022-09-23T10:38:59;11.43;;;10.13;;
54430;SDS011;40342;52.998;5.862;2022-09-23T10:41:47;12.60;;;11.30;;
54430;SDS011;40342;52.998;5.862;2022-09-23T10:47:53;11.77;;;10.68;;
54430;SDS011;40342;52.998;5.862;2022-09-23T10:50:45;12.82;;;11.55;;
54430;SDS011;40342;52.998;5.862;2022-09-23T10:56:18;16.35;;;11.85;;
54430;SDS011;40342;52.998;5.862;2022-09-23T11:01:42;12.23;;;10.93;;
54430;SDS011;40342;52.998;5.862;2022-09-23T11:21:32;15.95;;;11.23;;
54430;SDS011;40342;52.998;5.862;2022-09-23T11:26:59;14.27;;;11.82;;
54430;SDS011;40342;52.998;5.862;2022-09-23T11:35:08;14.38;;;12.90;;
54430;SDS011;40342;52.998;5.862;2022-09-23T11:37:49;15.15;;;12.05;;
54430;SDS011;40342;52.998;5.862;2022-09-23T11:40:25;17.27;;;13.00;;
54430;SDS011;40342;52.998;5.862;2022-09-23T11:46:05;14.02;;;12.52;;
54430;SDS011;40342;52.998;5.862;2022-09-23T11:51:21;16.88;;;13.18;;
54430;SDS011;40342;52.998;5.862;2022-09-23T11:54:03;15.27;;;12.52;;
54430;SDS011;40342;52.998;5.862;2022-09-23T11:56:42;15.02;;;13.00;;
54430;SDS011;40342;52.998;5.862;2022-09-23T12:01:46;15.68;;;14.05;;
54430;SDS011;40342;52.998;5.862;2022-09-23T12:09:37;14.63;;;12.98;;
54430;SDS011;40342;52.998;5.862;2022-09-23T12:15:19;16.30;;;14.07;;
54430;SDS011;40342;52.998;5.862;2022-09-23T12:20:48;19.08;;;14.27;;
54430;SDS011;40342;52.998;5.862;2022-09-23T12:25:58;14.73;;;13.10;;
54430;SDS011;40342;52.998;5.862;2022-09-23T12:28:28;15.88;;;14.38;;
54430;SDS011;40342;52.998;5.862;2022-09-23T12:31:11;15.65;;;13.80;;
54430;SDS011;40342;52.998;5.862;2022-09-23T12:33:40;16.92;;;12.63;;
54430;SDS011;40342;52.998;5.862;2022-09-23T12:36:23;14.88;;;12.50;;
54430;SDS011;40342;52.998;5.862;2022-09-23T12:38:52;16.70;;;13.05;;
54430;SDS011;40342;52.998;5.862;2022-09-23T12:46:39;16.42;;;13.70;;
54430;SDS011;40342;52.998;5.862;2022-09-23T12:52:10;14.52;;;12.98;;
54430;SDS011;40342;52.998;5.862;2022-09-23T12:54:37;16.50;;;12.77;;
54430;SDS011;40342;52.998;5.862;2022-09-23T12:59:56;15.48;;;13.80;;
54430;SDS011;40342;52.998;5.862;2022-09-23T13:08:39;14.95;;;13.40;;
54430;SDS011;40342;52.998;5.862;2022-09-23T13:11:18;14.05;;;12.60;;
54430;SDS011;40342;52.998;5.862;2022-09-23T13:13:49;14.65;;;13.07;;
54430;SDS011;40342;52.998;5.862;2022-09-23T13:16:25;19.92;;;14.27;;
54430;SDS011;40342;52.998;5.862;2022-09-23T13:18:58;15.10;;;12.82;;
54430;SDS011;40342;52.998;5.862;2022-09-23T13:24:51;14.07;;;12.73;;
54430;SDS011;40342;52.998;5.862;2022-09-23T13:27:15;15.10;;;12.57;;
54430;SDS011;40342;52.998;5.862;2022-09-23T13:32:19;16.63;;;13.82;;
54430;SDS011;40342;52.998;5.862;2022-09-23T13:35:33;14.85;;;12.75;;
54430;SDS011;40342;52.998;5.862;2022-09-23T13:37:48;17.58;;;13.30;;
54430;SDS011;40342;52.998;5.862;2022-09-23T13:42:58;16.98;;;12.98;;
54430;SDS011;40342;52.998;5.862;2022-09-23T13:45:45;15.00;;;13.40;;
54430;SDS011;40342;52.998;5.862;2022-09-23T13:48:12;14.75;;;13.27;;
54430;SDS011;40342;52.998;5.862;2022-09-23T13:50:42;14.77;;;13.05;;
54430;SDS011;40342;52.998;5.862;2022-09-23T13:53:15;16.40;;;14.60;;
54430;SDS011;40342;52.998;5.862;2022-09-23T13:56:05;15.13;;;13.50;;
54430;SDS011;40342;52.998;5.862;2022-09-23T13:58:38;13.82;;;12.40;;
54430;SDS011;40342;52.998;5.862;2022-09-23T14:01:09;16.60;;;12.98;;
54430;SDS011;40342;52.998;5.862;2022-09-23T14:03:56;17.42;;;13.63;;
54430;SDS011;40342;52.998;5.862;2022-09-23T14:06:22;15.88;;;13.65;;
54430;SDS011;40342;52.998;5.862;2022-09-23T14:08:49;16.00;;;13.75;;
54430;SDS011;40342;52.998;5.862;2022-09-23T14:11:22;20.25;;;14.77;;
54430;SDS011;40342;52.998;5.862;2022-09-23T14:13:55;15.35;;;13.90;;
54430;SDS011;40342;52.998;5.862;2022-09-23T14:16:22;15.57;;;13.90;;
54430;SDS011;40342;52.998;5.862;2022-09-23T14:18:51;17.17;;;13.77;;
54430;SDS011;40342;52.998;5.862;2022-09-23T14:21:36;14.07;;;12.88;;
54430;SDS011;40342;52.998;5.862;2022-09-23T14:26:40;16.52;;;14.70;;
54430;SDS011;40342;52.998;5.862;2022-09-23T14:29:15;14.57;;;12.63;;
54430;SDS011;40342;52.998;5.862;2022-09-23T14:31:44;17.38;;;13.57;;
54430;SDS011;40342;52.998;5.862;2022-09-23T14:40:01;19.25;;;12.63;;
54430;SDS011;40342;52.998;5.862;2022-09-23T14:42:29;12.80;;;11.50;;
54430;SDS011;40342;52.998;5.862;2022-09-23T14:47:29;13.75;;;12.07;;
54430;SDS011;40342;52.998;5.862;2022-09-23T14:49:56;13.27;;;11.32;;
54430;SDS011;40342;52.998;5.862;2022-09-23T14:52:47;13.98;;;12.00;;
54430;SDS011;40342;52.998;5.862;2022-09-23T14:55:14;18.33;;;12.80;;
54430;SDS011;40342;52.998;5.862;2022-09-23T14:57:41;13.20;;;11.63;;
54430;SDS011;40342;52.998;5.862;2022-09-23T15:00:13;15.63;;;12.10;;
54430;SDS011;40342;52.998;5.862;2022-09-23T15:02:42;16.98;;;12.35;;
54430;SDS011;40342;52.998;5.862;2022-09-23T15:05:14;14.35;;;12.82;;
54430;SDS011;40342;52.998;5.862;2022-09-23T15:07:43;14.50;;;11.85;;
54430;SDS011;40342;52.998;5.862;2022-09-23T15:10:25;12.68;;;10.57;;
54430;SDS011;40342;52.998;5.862;2022-09-23T15:12:53;13.18;;;11.80;;
54430;SDS011;40342;52.998;5.862;2022-09-23T15:15:27;17.10;;;11.90;;
54430;SDS011;40342;52.998;5.862;2022-09-23T15:17:53;15.43;;;11.68;;
54430;SDS011;40342;52.998;5.862;2022-09-23T15:20:21;13.15;;;11.75;;
54430;SDS011;40342;52.998;5.862;2022-09-23T15:22:49;15.43;;;12.25;;
54430;SDS011;40342;52.998;5.862;2022-09-23T15:25:25;13.20;;;11.60;;
54430;SDS011;40342;52.998;5.862;2022-09-23T15:28:15;13.20;;;11.00;;
54430;SDS011;40342;52.998;5.862;2022-09-23T15:30:41;17.65;;;11.63;;
54430;SDS011;40342;52.998;5.862;2022-09-23T15:33:10;18.02;;;12.48;;
54430;SDS011;40342;52.998;5.862;2022-09-23T15:35:36;15.77;;;13.85;;
54430;SDS011;40342;52.998;5.862;2022-09-23T15:38:09;18.88;;;14.10;;
54430;SDS011;40342;52.998;5.862;2022-09-23T15:40:35;14.88;;;13.18;;
54430;SDS011;40342;52.998;5.862;2022-09-23T15:43:08;18.92;;;14.82;;
54430;SDS011;40342;52.998;5.862;2022-09-23T15:45:43;19.83;;;15.02;;
54430;SDS011;40342;52.998;5.862;2022-09-23T15:48:18;20.05;;;16.50;;
54430;SDS011;40342;52.998;5.862;2022-09-23T15:50:46;23.30;;;18.50;;
54430;SDS011;40342;52.998;5.862;2022-09-23T15:53:18;22.23;;;17.13;;
54430;SDS011;40342;52.998;5.862;2022-09-23T15:55:46;21.52;;;16.55;;
54430;SDS011;40342;52.998;5.862;2022-09-23T15:58:15;27.42;;;17.52;;
54430;SDS011;40342;52.998;5.862;2022-09-23T16:00:41;25.10;;;17.40;;
54430;SDS011;40342;52.998;5.862;2022-09-23T16:03:08;20.73;;;16.98;;
54430;SDS011;40342;52.998;5.862;2022-09-23T16:05:38;21.75;;;16.50;;
54430;SDS011;40342;52.998;5.862;2022-09-23T16:08:07;20.95;;;15.65;;
54430;SDS011;40342;52.998;5.862;2022-09-23T16:10:34;21.13;;;15.48;;
54430;SDS011;40342;52.998;5.862;2022-09-23T16:13:01;19.17;;;15.43;;
54430;SDS011;40342;52.998;5.862;2022-09-23T16:15:29;19.58;;;15.07;;
54430;SDS011;40342;52.998;5.862;2022-09-23T16:17:56;18.90;;;15.38;;
54430;SDS011;40342;52.998;5.862;2022-09-23T16:20:22;18.27;;;14.95;;
54430;SDS011;40342;52.998;5.862;2022-09-23T16:22:55;20.48;;;14.55;;
54430;SDS011;40342;52.998;5.862;2022-09-23T16:25:23;18.52;;;14.68;;
54430;SDS011;40342;52.998;5.862;2022-09-23T16:27:52;16.98;;;15.02;;
54430;SDS011;40342;52.998;5.862;2022-09-23T16:30:20;21.85;;;16.52;;
54430;SDS011;40342;52.998;5.862;2022-09-23T16:32:46;16.15;;;13.23;;
54430;SDS011;40342;52.998;5.862;2022-09-23T16:35:12;26.45;;;16.08;;
54430;SDS011;40342;52.998;5.862;2022-09-23T16:37:39;18.67;;;15.55;;
54430;SDS011;40342;52.998;5.862;2022-09-23T16:40:04;22.08;;;14.38;;
54430;SDS011;40342;52.998;5.862;2022-09-23T16:42:31;22.27;;;14.10;;
54430;SDS011;40342;52.998;5.862;2022-09-23T16:44:57;15.80;;;14.07;;
54430;SDS011;40342;52.998;5.862;2022-09-23T16:47:22;18.48;;;14.65;;
54430;SDS011;40342;52.998;5.862;2022-09-23T16:49:48;18.80;;;14.27;;
54430;SDS011;40342;52.998;5.862;2022-09-23T16:52:16;14.57;;;13.02;;
54430;SDS011;40342;52.998;5.862;2022-09-23T16:54:43;20.23;;;13.63;;
54430;SDS011;40342;52.998;5.862;2022-09-23T16:57:12;18.38;;;14.07;;
54430;SDS011;40342;52.998;5.862;2022-09-23T16:59:37;16.73;;;13.73;;
54430;SDS011;40342;52.998;5.862;2022-09-23T17:02:24;17.50;;;13.80;;
54430;SDS011;40342;52.998;5.862;2022-09-23T17:05:08;15.15;;;13.55;;
54430;SDS011;40342;52.998;5.862;2022-09-23T17:07:34;21.30;;;13.32;;
54430;SDS011;40342;52.998;5.862;2022-09-23T17:10:00;14.70;;;12.55;;
54430;SDS011;40342;52.998;5.862;2022-09-23T17:12:27;16.27;;;12.82;;
54430;SDS011;40342;52.998;5.862;2022-09-23T17:14:57;16.35;;;13.30;;
54430;SDS011;40342;52.998;5.862;2022-09-23T17:17:23;13.77;;;12.38;;
54430;SDS011;40342;52.998;5.862;2022-09-23T17:19:48;13.18;;;11.65;;
54430;SDS011;40342;52.998;5.862;2022-09-23T17:22:14;12.43;;;11.15;;
54430;SDS011;40342;52.998;5.862;2022-09-23T17:24:39;13.88;;;11.32;;